createdAt,value
2024-05-09T00:00:44.976Z,15.00
2024-05-09T00:03:12.763Z,9.75
2024-05-09T00:05:44.364Z,13.45
2024-05-09T00:08:12.329Z,15.50
2024-05-09T00:10:42.727Z,15.35
2024-05-09T00:13:10.890Z,16.30
2024-05-09T00:15:38.954Z,16.38
2024-05-09T00:18:07.734Z,14.80
2024-05-09T00:20:39.213Z,13.25
2024-05-09T00:23:12.895Z,10.73
2024-05-09T00:25:44.295Z,12.02
2024-05-09T00:28:12.622Z,11.48
2024-05-09T00:30:40.054Z,12.40
2024-05-09T00:33:09.092Z,11.18
2024-05-09T00:35:37.756Z,11.07
2024-05-09T00:38:05.320Z,11.50
2024-05-09T00:40:43.353Z,9.93
2024-05-09T00:43:12.212Z,15.00
2024-05-09T00:45:40.249Z,12.57
2024-05-09T00:48:09.571Z,8.85
2024-05-09T00:50:42.315Z,10.30
2024-05-09T00:53:15.132Z,9.35
2024-05-09T00:55:42.841Z,9.77
2024-05-09T00:58:13.753Z,8.45
2024-05-09T01:03:22.993Z,10.10
2024-05-09T01:05:50.323Z,9.30
2024-05-09T01:08:18.650Z,8.35
2024-05-09T01:10:47.988Z,13.27
2024-05-09T01:13:15.702Z,9.45
2024-05-09T01:15:43.493Z,10.50
2024-05-09T01:18:12.664Z,11.82
2024-05-09T01:20:43.816Z,11.38
2024-05-09T01:23:14.685Z,8.75
2024-05-09T01:25:43.740Z,11.38
2024-05-09T01:28:10.918Z,11.25
2024-05-09T01:30:38.697Z,9.60
2024-05-09T01:33:08.876Z,11.68
2024-05-09T01:35:39.426Z,11.50
2024-05-09T01:38:07.677Z,9.10
2024-05-09T01:40:38.654Z,9.35
2024-05-09T01:43:11.645Z,11.07
2024-05-09T01:45:40.495Z,10.07
2024-05-09T01:48:08.843Z,8.90
2024-05-09T01:50:40.266Z,10.48
2024-05-09T01:53:15.226Z,10.18
2024-05-09T01:55:43.417Z,11.68
2024-05-09T01:58:10.842Z,8.40
2024-05-09T02:00:41.382Z,14.93
2024-05-09T02:03:15.172Z,14.30
2024-05-09T02:05:48.594Z,13.52
2024-05-09T02:08:18.919Z,11.52
2024-05-09T02:10:48.381Z,9.00
2024-05-09T02:13:16.546Z,10.43
2024-05-09T02:15:44.556Z,11.48
2024-05-09T02:18:12.327Z,11.20
2024-05-09T02:20:41.315Z,11.88
2024-05-09T02:23:09.805Z,10.43
2024-05-09T02:25:37.058Z,8.65
2024-05-09T02:28:04.279Z,9.23
2024-05-09T02:30:39.983Z,9.98
2024-05-09T02:33:11.414Z,10.88
2024-05-09T02:35:40.413Z,10.70
2024-05-09T02:38:09.517Z,12.82
2024-05-09T02:40:38.956Z,10.05
2024-05-09T02:43:09.045Z,9.65
2024-05-09T02:45:37.671Z,13.10
2024-05-09T02:48:05.433Z,10.98
2024-05-09T02:50:38.004Z,9.32
2024-05-09T02:53:08.257Z,10.40
2024-05-09T02:55:35.872Z,11.05
2024-05-09T02:58:03.021Z,11.98
2024-05-09T03:00:38.203Z,11.75
2024-05-09T03:03:10.575Z,7.72
2024-05-09T03:05:40.416Z,12.15
2024-05-09T03:08:08.253Z,11.10
2024-05-09T03:10:38.005Z,10.85
2024-05-09T03:13:14.632Z,10.35
2024-05-09T03:15:43.350Z,10.77
2024-05-09T03:18:11.136Z,10.35
2024-05-09T03:20:39.675Z,10.13
2024-05-09T03:23:09.468Z,10.40
2024-05-09T03:25:38.040Z,7.95
2024-05-09T03:28:05.504Z,11.43
2024-05-09T03:30:40.001Z,11.88
2024-05-09T03:33:20.778Z,11.70
2024-05-09T03:35:49.462Z,9.88
2024-05-09T03:38:17.198Z,9.25
2024-05-09T03:40:49.388Z,12.48
2024-05-09T03:43:18.020Z,10.18
2024-05-09T03:45:46.016Z,9.43
2024-05-09T03:48:13.657Z,12.13
2024-05-09T03:50:41.623Z,10.73
2024-05-09T03:53:13.909Z,9.77
2024-05-09T03:55:41.386Z,11.93
2024-05-09T03:58:08.731Z,15.20
2024-05-09T04:14:57.133Z,12.67
2024-05-09T04:17:24.311Z,12.18
2024-05-09T04:19:51.355Z,11.40
2024-05-09T04:22:18.502Z,10.75
2024-05-09T04:24:45.547Z,11.68
2024-05-09T04:27:12.642Z,9.40
2024-05-09T04:29:40.568Z,10.18
2024-05-09T04:32:08.356Z,14.65
2024-05-09T04:34:36.613Z,10.07
2024-05-09T04:37:03.978Z,10.60
2024-05-09T04:39:31.259Z,10.68
2024-05-09T04:41:58.204Z,12.07
2024-05-09T04:44:25.322Z,10.10
2024-05-09T04:46:52.540Z,8.98
2024-05-09T04:49:19.888Z,9.00
2024-05-09T04:51:47.135Z,11.10
2024-05-09T04:54:26.123Z,8.25
2024-05-09T04:59:28.449Z,12.90
2024-05-09T05:02:29.740Z,8.23
2024-05-09T05:04:57.116Z,11.38
2024-05-09T05:07:24.227Z,12.38
2024-05-09T05:09:51.407Z,9.23
2024-05-09T05:12:37.226Z,12.27
2024-05-09T05:15:04.690Z,9.60
2024-05-09T05:17:32.056Z,10.02
2024-05-09T05:19:59.353Z,10.05
2024-05-09T05:22:26.574Z,8.70
2024-05-09T05:24:53.680Z,8.55
2024-05-09T05:27:20.741Z,8.27
2024-05-09T05:29:47.882Z,7.25
2024-05-09T05:32:15.178Z,11.95
2024-05-09T05:34:42.435Z,8.25
2024-05-09T05:37:09.584Z,7.45
2024-05-09T05:39:36.609Z,8.93
2024-05-09T05:42:03.834Z,11.43
2024-05-09T05:44:31.038Z,8.30
2024-05-09T05:46:58.258Z,9.20
2024-05-09T05:49:25.897Z,7.68
2024-05-09T05:51:53.034Z,7.70
2024-05-09T05:54:20.491Z,7.68
2024-05-09T05:56:47.579Z,8.35
2024-05-09T05:59:15.627Z,6.38
2024-05-09T06:01:43.480Z,9.85
2024-05-09T06:04:10.671Z,10.43
2024-05-09T06:06:50.486Z,6.78
2024-05-09T06:09:17.475Z,10.15
2024-05-09T06:11:50.396Z,7.35
2024-05-09T06:14:17.607Z,9.75
2024-05-09T06:16:48.645Z,12.18
2024-05-09T06:19:17.986Z,9.40
2024-05-09T06:21:45.438Z,14.43
2024-05-09T06:24:13.697Z,12.35
2024-05-09T06:26:50.350Z,11.85
2024-05-09T06:29:17.530Z,14.52
2024-05-09T06:31:45.314Z,15.80
2024-05-09T06:34:15.960Z,13.60
2024-05-09T06:36:43.943Z,9.90
2024-05-09T06:39:11.549Z,10.48
2024-05-09T06:41:38.953Z,8.73
2024-05-09T06:44:06.426Z,9.98
2024-05-09T06:46:33.722Z,18.17
2024-05-09T06:49:08.746Z,14.13
2024-05-09T06:51:38.954Z,12.63
2024-05-09T06:54:09.378Z,13.27
2024-05-09T06:56:36.778Z,9.90
2024-05-09T06:59:05.099Z,9.88
2024-05-09T07:04:14.550Z,15.65
2024-05-09T07:06:42.023Z,11.68
2024-05-09T07:09:12.153Z,10.43
2024-05-09T07:11:42.946Z,8.10
2024-05-09T07:14:10.528Z,7.40
2024-05-09T07:16:38.022Z,9.23
2024-05-09T07:19:05.792Z,10.05
2024-05-09T07:21:33.364Z,4.80
2024-05-09T07:24:00.620Z,5.72
2024-05-09T07:26:27.801Z,5.10
2024-05-09T07:28:55.291Z,5.25
2024-05-09T07:31:23.608Z,7.28
2024-05-09T07:33:50.885Z,4.65
2024-05-09T07:36:18.212Z,8.35
2024-05-09T07:38:45.442Z,5.60
2024-05-09T07:41:12.692Z,7.07
2024-05-09T07:43:39.951Z,6.95
2024-05-09T07:50:53.221Z,5.05
2024-05-09T07:53:20.422Z,4.05
2024-05-09T07:59:33.373Z,2.90
2024-05-09T08:02:03.296Z,3.40
2024-05-09T08:04:30.591Z,2.42
2024-05-09T08:06:57.664Z,3.90
2024-05-09T08:09:24.776Z,2.15
2024-05-09T08:11:52.987Z,1.60
2024-05-09T08:14:19.982Z,3.08
2024-05-09T08:34:27.376Z,4.07
2024-05-09T08:36:59.543Z,3.45
2024-05-09T08:45:18.591Z,2.47
2024-05-09T08:47:47.296Z,3.30
2024-05-09T08:50:31.470Z,4.03
2024-05-09T08:53:05.193Z,4.10
2024-05-09T08:55:32.603Z,5.10
2024-05-09T09:00:40.880Z,2.45
2024-05-09T09:03:09.976Z,2.85
2024-05-09T09:05:39.929Z,3.00
2024-05-09T09:08:09.026Z,1.88
2024-05-09T09:13:39.769Z,3.15
2024-05-09T09:16:07.294Z,5.82
2024-05-09T09:18:35.255Z,4.32
2024-05-09T09:21:03.427Z,4.18
2024-05-09T09:23:30.788Z,2.72
2024-05-09T09:26:01.726Z,7.45
2024-05-09T09:28:29.854Z,2.88
2024-05-09T09:31:06.128Z,2.72
2024-05-09T09:33:36.727Z,5.07
2024-05-09T09:36:04.701Z,1.95
2024-05-09T09:38:35.158Z,7.15
2024-05-09T09:41:07.020Z,2.15
2024-05-09T09:43:34.559Z,1.77
2024-05-09T09:46:02.865Z,1.20
2024-05-09T09:48:31.874Z,2.97
2024-05-09T09:51:00.472Z,1.60
2024-05-09T09:53:28.850Z,1.52
2024-05-09T09:55:56.524Z,1.83
2024-05-09T09:58:24.461Z,1.48
2024-05-09T10:00:51.625Z,1.95
2024-05-09T10:03:22.053Z,1.35
2024-05-09T10:05:49.867Z,2.10
2024-05-09T10:08:18.392Z,1.38
2024-05-09T10:10:48.389Z,4.07
2024-05-09T10:13:15.939Z,6.22
2024-05-09T10:15:48.543Z,3.67
2024-05-09T10:18:15.977Z,1.90
2024-05-09T10:20:47.163Z,1.92
2024-05-09T10:23:36.417Z,5.00
2024-05-09T10:26:07.026Z,4.05
2024-05-09T10:28:39.436Z,1.40
2024-05-09T10:31:11.125Z,6.40
2024-05-09T10:33:42.465Z,4.40
2024-05-09T10:36:20.101Z,1.98
2024-05-09T10:38:48.644Z,4.13
2024-05-09T10:41:17.293Z,2.75
2024-05-09T10:43:44.432Z,3.03
2024-05-09T10:46:12.502Z,5.97
2024-05-09T10:48:42.295Z,3.70
2024-05-09T10:51:09.655Z,6.55
2024-05-09T10:53:45.006Z,5.00
2024-05-09T10:56:14.191Z,4.53
2024-05-09T10:58:41.410Z,4.45
2024-05-09T11:01:10.623Z,5.47
2024-05-09T11:03:39.008Z,8.75
2024-05-09T11:06:06.885Z,5.07
2024-05-09T11:08:35.291Z,3.47
2024-05-09T11:11:08.027Z,5.65
2024-05-09T11:13:38.012Z,4.75
2024-05-09T11:16:07.681Z,7.53
2024-05-09T11:18:38.286Z,9.30
2024-05-09T11:21:13.436Z,4.85
2024-05-09T11:23:41.468Z,6.82
2024-05-09T11:26:09.400Z,4.40
2024-05-09T11:28:36.481Z,5.13
2024-05-09T11:31:08.952Z,2.75
2024-05-09T11:33:39.236Z,3.40
2024-05-09T11:36:07.195Z,3.30
2024-05-09T11:38:34.351Z,4.13
2024-05-09T11:41:02.658Z,3.90
2024-05-09T11:43:29.694Z,1.30
2024-05-09T11:45:59.959Z,6.80
2024-05-09T11:48:27.451Z,2.30
2024-05-09T11:50:55.585Z,2.08
2024-05-09T11:53:22.795Z,2.25
2024-05-09T11:55:50.383Z,3.00
2024-05-09T11:58:18.756Z,2.85
2024-05-09T12:04:33.100Z,7.70
2024-05-09T12:07:00.326Z,3.15
2024-05-09T12:09:27.390Z,1.40
2024-05-09T12:11:54.496Z,5.13
2024-05-09T12:14:21.505Z,4.82
2024-05-09T12:16:48.730Z,4.85
2024-05-09T12:19:17.280Z,4.82
2024-05-09T12:21:44.586Z,1.75
2024-05-09T12:24:13.719Z,3.47
2024-05-09T12:26:42.307Z,3.45
2024-05-09T12:29:09.260Z,3.78
2024-05-09T12:31:36.269Z,3.63
2024-05-09T12:34:03.485Z,1.88
2024-05-09T12:36:33.738Z,1.33
2024-05-09T12:39:01.198Z,5.45
2024-05-09T12:41:28.153Z,3.53
2024-05-09T12:43:55.063Z,5.13
2024-05-09T12:46:23.552Z,2.95
2024-05-09T12:48:50.907Z,6.13
2024-05-09T12:51:17.923Z,4.20
2024-05-09T12:53:45.106Z,7.13
2024-05-09T12:56:12.456Z,3.92
2024-05-09T12:58:39.935Z,4.97
2024-05-09T13:01:07.048Z,1.83
2024-05-09T13:03:34.265Z,2.25
2024-05-09T13:06:01.666Z,3.10
2024-05-09T13:08:28.699Z,2.33
2024-05-09T13:10:56.039Z,0.98
2024-05-09T13:13:23.092Z,1.63
2024-05-09T13:15:50.455Z,4.32
2024-05-09T13:18:17.575Z,1.75
2024-05-09T13:20:44.783Z,4.65
2024-05-09T13:23:12.183Z,1.75
2024-05-09T13:25:39.321Z,3.45
2024-05-09T13:28:07.671Z,5.10
2024-05-09T13:30:40.439Z,10.20
2024-05-09T13:33:17.272Z,4.55
2024-05-09T13:35:48.958Z,4.05
2024-05-09T13:38:21.442Z,1.85
2024-05-09T13:40:49.380Z,4.38
2024-05-09T13:43:18.182Z,2.03
2024-05-09T13:45:45.896Z,6.95
2024-05-09T13:48:13.544Z,3.72
2024-05-09T13:50:40.793Z,2.50
2024-05-09T13:53:08.991Z,15.02
2024-05-09T13:55:40.090Z,6.15
2024-05-09T13:58:08.629Z,2.30
2024-05-09T14:00:44.559Z,2.65
2024-05-09T14:03:17.929Z,1.67
2024-05-09T14:05:47.709Z,3.75
2024-05-09T14:08:15.892Z,3.45
2024-05-09T14:10:46.936Z,5.68
2024-05-09T14:13:14.870Z,4.70
2024-05-09T14:15:42.269Z,3.17
2024-05-09T14:18:12.711Z,5.78
2024-05-09T14:20:41.655Z,5.45
2024-05-09T14:23:08.961Z,2.95
2024-05-09T14:25:40.373Z,4.10
2024-05-09T14:28:10.470Z,2.15
2024-05-09T14:30:38.765Z,5.03
2024-05-09T14:33:07.796Z,3.10
2024-05-09T14:35:35.873Z,2.15
2024-05-09T14:38:03.743Z,4.40
2024-05-09T14:40:40.852Z,3.10
2024-05-09T14:43:15.669Z,9.25
2024-05-09T14:45:43.994Z,7.18
2024-05-09T14:48:12.692Z,4.47
2024-05-09T14:50:40.820Z,15.00
2024-05-09T14:53:12.202Z,4.63
2024-05-09T14:55:41.066Z,5.05
2024-05-09T14:58:10.477Z,2.70
2024-05-09T15:00:43.003Z,5.10
2024-05-09T15:03:13.512Z,3.23
2024-05-09T15:05:40.958Z,4.30
2024-05-09T15:08:09.032Z,2.67
2024-05-09T15:10:37.309Z,3.35
2024-05-09T15:13:07.247Z,4.28
2024-05-09T15:15:36.205Z,4.25
2024-05-09T15:18:05.169Z,1.20
2024-05-09T15:20:36.087Z,3.30
2024-05-09T15:23:06.687Z,5.80
2024-05-09T15:25:35.701Z,3.03
2024-05-09T15:28:03.809Z,1.52
2024-05-09T15:30:33.234Z,4.18
2024-05-09T15:33:04.195Z,2.30
2024-05-09T15:35:32.077Z,2.85
2024-05-09T15:37:59.999Z,4.28
2024-05-09T15:40:35.871Z,5.15
2024-05-09T15:43:07.981Z,5.68
2024-05-09T15:45:35.794Z,6.78
2024-05-09T15:48:03.843Z,4.85
2024-05-09T15:50:38.055Z,3.15
2024-05-09T15:53:09.575Z,4.38
2024-05-09T15:55:37.510Z,2.20
2024-05-09T16:00:39.305Z,3.92
2024-05-09T16:03:13.904Z,3.42
2024-05-09T16:05:45.245Z,8.98
2024-05-09T16:08:13.730Z,6.18
2024-05-09T16:10:44.844Z,5.72
2024-05-09T16:13:13.431Z,2.65
2024-05-09T16:15:42.233Z,1.58
2024-05-09T16:20:47.241Z,2.55
2024-05-09T16:23:16.436Z,1.58
2024-05-09T16:25:59.092Z,4.95
2024-05-09T16:28:27.099Z,4.03
2024-05-09T16:30:54.867Z,4.07
2024-05-09T16:33:26.194Z,2.22
2024-05-09T16:35:58.101Z,5.95
2024-05-09T16:41:04.089Z,2.17
2024-05-09T16:52:32.776Z,15.75
2024-05-09T16:54:59.784Z,4.75
2024-05-09T16:57:26.946Z,5.50
2024-05-09T16:59:54.147Z,7.32
2024-05-09T17:02:21.300Z,3.75
2024-05-09T17:04:48.520Z,3.40
2024-05-09T17:07:15.945Z,4.85
2024-05-09T17:09:43.191Z,4.50
2024-05-09T17:12:10.370Z,3.25
2024-05-09T17:14:37.489Z,4.20
2024-05-09T17:17:05.103Z,3.88
2024-05-09T17:19:32.147Z,2.08
2024-05-09T17:21:59.543Z,7.70
2024-05-09T17:24:26.531Z,2.67
2024-05-09T17:26:53.751Z,4.00
2024-05-09T17:29:21.854Z,2.90
2024-05-09T17:31:48.948Z,2.58
2024-05-09T17:34:16.275Z,4.22
2024-05-09T17:36:44.423Z,2.30
2024-05-09T17:39:11.700Z,2.65
2024-05-09T17:41:38.678Z,2.65
2024-05-09T17:44:06.653Z,3.22
2024-05-09T17:46:34.670Z,10.75
2024-05-09T17:49:01.922Z,3.58
2024-05-09T17:51:31.457Z,10.93
2024-05-09T17:53:58.864Z,12.05
2024-05-09T17:56:26.163Z,9.15
2024-05-09T17:58:53.148Z,6.10
2024-05-09T18:01:20.161Z,8.75
2024-05-09T18:03:48.899Z,7.15
2024-05-09T18:06:17.033Z,4.65
2024-05-09T18:08:52.147Z,6.47
2024-05-09T18:11:19.283Z,6.00
2024-05-09T18:13:47.703Z,6.93
2024-05-09T18:16:15.022Z,6.00
2024-05-09T18:18:42.659Z,3.72
2024-05-09T18:21:09.880Z,4.32
2024-05-09T18:23:37.592Z,5.68
2024-05-09T18:26:05.855Z,7.05
2024-05-09T18:28:33.030Z,3.88
2024-05-09T18:31:00.349Z,7.15
2024-05-09T18:33:27.564Z,4.32
2024-05-09T18:35:54.773Z,3.85
2024-05-09T18:41:02.317Z,10.00
2024-05-09T18:43:38.011Z,11.35
2024-05-09T18:46:09.446Z,11.13
2024-05-09T18:48:36.766Z,6.53
2024-05-09T18:51:05.783Z,5.63
2024-05-09T18:53:33.231Z,6.30
2024-05-09T18:56:00.313Z,5.07
2024-05-09T18:58:27.489Z,7.55
2024-05-09T19:00:56.532Z,5.38
2024-05-09T19:03:25.024Z,6.20
2024-05-09T19:05:52.219Z,5.28
2024-05-09T19:08:19.462Z,9.18
2024-05-09T19:10:46.771Z,10.60
2024-05-09T19:13:14.640Z,7.93
2024-05-09T19:15:43.369Z,7.72
2024-05-09T19:18:12.724Z,8.43
2024-05-09T19:20:40.523Z,8.55
2024-05-09T19:23:07.819Z,11.23
2024-05-09T19:25:35.542Z,9.57
2024-05-09T19:28:03.555Z,6.00
2024-05-09T19:30:38.529Z,7.18
2024-05-09T19:33:09.850Z,7.88
2024-05-09T19:35:38.015Z,5.68
2024-05-09T19:38:05.449Z,6.07
2024-05-09T19:40:34.570Z,6.47
2024-05-09T19:43:03.531Z,4.28
2024-05-09T19:45:33.770Z,5.15
2024-05-09T19:48:02.247Z,6.03
2024-05-09T19:50:37.371Z,3.83
2024-05-09T19:53:10.682Z,4.95
2024-05-09T19:55:38.554Z,5.03
2024-05-09T19:58:07.458Z,9.73
2024-05-09T20:04:31.711Z,5.30
2024-05-09T20:06:59.287Z,6.57
2024-05-09T20:09:26.636Z,9.20
2024-05-09T20:11:53.615Z,7.78
2024-05-09T20:14:20.792Z,6.03
2024-05-09T20:16:47.874Z,6.50
2024-05-09T20:19:15.285Z,4.38
2024-05-09T20:21:43.328Z,5.82
2024-05-09T20:24:10.869Z,6.65
2024-05-09T20:26:38.006Z,8.93
2024-05-09T20:29:05.075Z,7.55
2024-05-09T20:31:32.413Z,4.05
2024-05-09T20:33:59.393Z,7.28
2024-05-09T20:36:26.345Z,5.50
2024-05-09T20:38:53.455Z,8.32
2024-05-09T20:41:20.492Z,4.70
2024-05-09T20:43:47.645Z,8.80
2024-05-09T20:46:15.899Z,7.18
2024-05-09T20:48:43.505Z,3.30
2024-05-09T20:51:10.531Z,2.47
2024-05-09T20:53:37.783Z,3.97
2024-05-09T20:56:05.138Z,4.13
2024-05-09T20:58:32.177Z,5.50
2024-05-09T21:00:59.426Z,2.40
2024-05-09T21:03:26.621Z,3.25
2024-05-09T21:05:54.021Z,3.40
2024-05-09T21:08:22.316Z,3.13
2024-05-09T21:10:50.486Z,5.50
2024-05-09T21:13:17.646Z,2.25
2024-05-09T21:15:44.904Z,3.47
2024-05-09T21:18:11.932Z,1.90
2024-05-09T21:20:38.991Z,4.32
2024-05-09T21:23:06.169Z,3.72
2024-05-09T21:25:33.259Z,13.95
2024-05-09T21:28:01.211Z,5.40
2024-05-09T21:30:38.375Z,5.93
2024-05-09T21:33:11.453Z,4.07
2024-05-09T21:35:41.066Z,6.43
2024-05-09T21:38:08.556Z,3.92
2024-05-09T21:40:36.824Z,3.00
2024-05-09T21:43:05.615Z,1.70
2024-05-09T21:45:33.613Z,2.47
2024-05-09T21:48:00.979Z,4.22
2024-05-09T21:50:35.905Z,1.98
2024-05-09T21:53:07.305Z,2.08
2024-05-09T21:55:34.793Z,7.28
2024-05-09T21:58:02.490Z,3.15
2024-05-09T22:00:36.044Z,4.35
2024-05-09T22:03:10.489Z,3.22
2024-05-09T22:05:39.376Z,2.50
2024-05-09T22:08:12.160Z,1.60
2024-05-09T22:10:39.312Z,1.27
2024-05-09T22:13:09.497Z,4.32
2024-05-09T22:15:39.603Z,3.00
2024-05-09T22:18:08.651Z,6.88
2024-05-09T22:20:39.292Z,2.20
2024-05-09T22:23:08.346Z,5.63
2024-05-09T22:25:36.902Z,2.75
2024-05-09T22:28:04.664Z,1.83
2024-05-09T22:30:37.041Z,1.67
2024-05-09T22:33:17.349Z,3.03
2024-05-09T22:35:48.243Z,2.97
2024-05-09T22:38:15.614Z,4.22
2024-05-09T22:40:48.089Z,27.55
2024-05-09T22:43:18.847Z,2.08
2024-05-09T22:45:47.329Z,2.75
2024-05-09T22:48:14.724Z,4.05
2024-05-09T22:50:41.948Z,5.57
2024-05-09T22:53:09.048Z,4.75
2024-05-09T22:55:36.257Z,9.50
2024-05-09T22:58:03.352Z,2.25
2024-05-09T23:00:32.374Z,4.20
2024-05-09T23:03:01.807Z,2.53
2024-05-09T23:05:29.509Z,2.92
2024-05-09T23:07:57.123Z,4.50
2024-05-09T23:10:32.101Z,3.85
2024-05-09T23:13:03.993Z,2.00
2024-05-09T23:15:31.376Z,2.17
2024-05-09T23:17:58.934Z,2.13
2024-05-09T23:20:33.731Z,2.53
2024-05-09T23:23:05.978Z,4.45
2024-05-09T23:25:33.089Z,4.55
2024-05-09T23:28:00.281Z,4.25
2024-05-09T23:30:36.024Z,4.00
2024-05-09T23:33:07.366Z,3.08
2024-05-09T23:35:34.743Z,2.60
2024-05-09T23:38:01.893Z,5.00
2024-05-09T23:42:58.993Z,2.72
2024-05-09T23:45:35.859Z,2.90
2024-05-09T23:48:03.656Z,5.47
2024-05-09T23:50:35.247Z,4.10
2024-05-09T23:53:05.853Z,2.30
2024-05-09T23:55:33.291Z,6.20
2024-05-09T23:58:00.664Z,9.15
